createdAt,value
2019-04-06T00:02:37.763Z,7.63
2019-04-06T00:05:08.316Z,7.62
2019-04-06T00:07:40.011Z,7.64
2019-04-06T00:10:08.872Z,7.61
2019-04-06T00:12:37.658Z,7.58
2019-04-06T00:15:07.753Z,7.56
2019-04-06T00:17:36.568Z,7.51
2019-04-06T00:20:06.730Z,7.44
2019-04-06T00:22:35.454Z,7.39
2019-04-06T00:25:05.348Z,7.33
2019-04-06T00:27:34.616Z,7.30
2019-04-06T00:30:03.455Z,7.27
2019-04-06T00:32:33.857Z,7.26
2019-04-06T00:35:05.404Z,7.23
2019-04-06T00:37:34.152Z,7.21
2019-04-06T00:40:02.869Z,7.19
2019-04-06T00:42:31.807Z,7.19
2019-04-06T00:45:00.514Z,7.18
2019-04-06T00:47:29.319Z,7.18
2019-04-06T00:49:58.020Z,7.15
2019-04-06T00:52:26.756Z,7.16
2019-04-06T00:54:55.982Z,7.14
2019-04-06T00:57:24.835Z,7.14
2019-04-06T00:59:53.590Z,7.18
2019-04-06T01:02:22.566Z,7.07
2019-04-06T01:04:52.988Z,7.03
2019-04-06T01:07:23.161Z,7.07
2019-04-06T01:09:52.804Z,7.10
2019-04-06T01:12:23.145Z,7.09
2019-04-06T01:14:51.972Z,7.04
2019-04-06T01:17:23.812Z,7.01
2019-04-06T01:19:52.724Z,6.97
2019-04-06T01:22:23.104Z,6.92
2019-04-06T01:24:51.935Z,6.90
2019-04-06T01:27:22.329Z,6.89
2019-04-06T01:29:51.147Z,6.87
2019-04-06T01:32:19.934Z,6.87
2019-04-06T01:34:48.669Z,6.88
2019-04-06T01:37:17.447Z,6.88
2019-04-06T01:39:46.187Z,6.89
2019-04-06T01:42:17.823Z,6.88
2019-04-06T01:44:46.553Z,6.86
2019-04-06T01:47:15.266Z,6.85
2019-04-06T01:49:45.464Z,6.84
2019-04-06T01:52:14.198Z,6.86
2019-04-06T01:54:43.016Z,6.82
2019-04-06T01:57:11.794Z,6.82
2019-04-06T01:59:40.574Z,6.86
2019-04-06T02:02:14.102Z,6.82
2019-04-06T02:04:42.897Z,6.82
2019-04-06T02:07:11.631Z,6.82
2019-04-06T02:09:40.404Z,6.83
2019-04-06T02:12:09.562Z,6.86
2019-04-06T02:14:38.600Z,6.89
2019-04-06T02:17:07.350Z,6.87
2019-04-06T02:19:39.646Z,6.83
2019-04-06T02:22:08.322Z,6.76
2019-04-06T02:24:38.683Z,6.73
2019-04-06T02:27:09.053Z,6.67
2019-04-06T02:29:37.957Z,6.63
2019-04-06T02:32:25.069Z,6.61
2019-04-06T02:35:11.641Z,6.58
2019-04-06T02:37:47.780Z,6.54
2019-04-06T02:40:28.364Z,6.51
2019-04-06T02:42:58.740Z,6.47
2019-04-06T02:45:27.505Z,6.45
2019-04-06T02:47:56.332Z,6.47
2019-04-06T02:50:25.122Z,6.45
2019-04-06T02:52:53.982Z,6.44
2019-04-06T02:55:22.759Z,6.45
2019-04-06T02:57:51.450Z,6.48
2019-04-06T03:00:24.131Z,6.47
2019-04-06T03:02:54.660Z,6.43
2019-04-06T03:05:23.436Z,6.44
2019-04-06T03:07:52.202Z,6.48
2019-04-06T03:10:21.283Z,6.48
2019-04-06T03:12:50.045Z,6.51
2019-04-06T03:15:18.849Z,6.53
2019-04-06T03:17:47.607Z,6.56
2019-04-06T03:20:16.353Z,6.55
2019-04-06T03:22:45.062Z,6.55
2019-04-06T03:25:13.978Z,6.51
2019-04-06T03:27:42.759Z,6.48
2019-04-06T03:30:12.009Z,6.43
2019-04-06T03:32:40.768Z,6.37
2019-04-06T03:35:10.060Z,6.34
2019-04-06T03:37:38.783Z,6.31
2019-04-06T03:40:07.810Z,6.26
2019-04-06T03:42:36.734Z,6.25
2019-04-06T03:45:07.940Z,6.26
2019-04-06T03:47:36.682Z,6.26
2019-04-06T03:50:09.796Z,6.26
2019-04-06T03:52:38.570Z,6.25
2019-04-06T03:55:09.773Z,6.23
2019-04-06T03:57:38.673Z,6.21
2019-04-06T04:00:07.901Z,6.18
2019-04-06T04:02:39.314Z,6.18
2019-04-06T04:05:08.617Z,6.16
2019-04-06T04:07:37.255Z,6.17
2019-04-06T04:10:07.639Z,6.16
2019-04-06T04:12:36.309Z,6.19
2019-04-06T04:15:06.479Z,6.22
2019-04-06T04:17:35.257Z,6.22
2019-04-06T04:20:07.763Z,6.20
2019-04-06T04:22:39.018Z,5.97
2019-04-06T04:25:07.729Z,6.21
2019-04-06T04:27:38.059Z,6.21
2019-04-06T04:30:08.433Z,6.20
2019-04-06T04:32:37.094Z,6.20
2019-04-06T04:35:08.590Z,6.20
2019-04-06T04:37:37.481Z,6.19
2019-04-06T04:40:08.486Z,6.20
2019-04-06T04:42:37.193Z,6.19
2019-04-06T04:45:06.542Z,6.21
2019-04-06T04:47:35.216Z,6.22
2019-04-06T04:50:03.871Z,6.23
2019-04-06T04:52:35.777Z,6.21
2019-04-06T04:55:06.199Z,6.21
2019-04-06T04:57:40.900Z,6.22
2019-04-06T05:00:06.401Z,6.23
2019-04-06T05:02:35.116Z,6.22
2019-04-06T05:05:04.573Z,6.23
2019-04-06T05:07:33.333Z,6.26
2019-04-06T05:10:02.022Z,6.28
2019-04-06T05:12:30.773Z,6.29
2019-04-06T05:15:02.409Z,6.29
2019-04-06T05:17:31.465Z,6.22
2019-04-06T05:20:00.481Z,6.19
2019-04-06T05:22:29.201Z,6.21
2019-04-06T05:24:58.036Z,6.21
2019-04-06T05:27:27.141Z,6.20
2019-04-06T05:29:59.183Z,6.21
2019-04-06T05:32:29.819Z,6.23
2019-04-06T05:34:58.682Z,6.25
2019-04-06T05:37:28.850Z,6.28
2019-04-06T05:39:57.521Z,6.34
2019-04-06T05:42:26.249Z,6.37
2019-04-06T05:44:55.011Z,6.42
2019-04-06T05:47:25.359Z,6.42
2019-04-06T05:49:54.679Z,6.45
2019-04-06T05:52:23.904Z,6.52
2019-04-06T05:54:52.847Z,6.59
2019-04-06T05:57:24.678Z,6.68
2019-04-06T05:59:53.519Z,6.74
2019-04-06T06:02:22.504Z,6.81
2019-04-06T06:04:51.234Z,6.92
2019-04-06T06:07:22.490Z,6.98
2019-04-06T06:09:51.915Z,7.07
2019-04-06T06:12:20.637Z,7.18
2019-04-06T06:14:50.946Z,7.32
2019-04-06T06:17:19.962Z,7.44
2019-04-06T06:19:50.532Z,7.52
2019-04-06T06:22:19.302Z,7.65
2019-04-06T06:24:48.398Z,7.76
2019-04-06T06:27:17.221Z,7.81
2019-04-06T06:29:47.377Z,7.85
2019-04-06T06:32:16.164Z,7.94
2019-04-06T06:34:48.383Z,8.01
2019-04-06T06:37:17.217Z,8.09
2019-04-06T06:39:45.910Z,8.24
2019-04-06T06:42:14.684Z,8.43
2019-04-06T06:44:43.369Z,8.57
2019-04-06T06:47:13.117Z,8.81
2019-04-06T06:49:41.791Z,8.99
2019-04-06T06:52:10.514Z,9.19
2019-04-06T06:54:39.260Z,9.41
2019-04-06T06:57:09.987Z,9.50
2019-04-06T06:59:38.880Z,9.57
2019-04-06T07:02:07.673Z,9.69
2019-04-06T07:04:36.400Z,9.87
2019-04-06T07:07:05.180Z,9.97
2019-04-06T07:09:36.984Z,10.04
2019-04-06T07:12:05.731Z,10.08
2019-04-06T07:14:37.172Z,10.18
2019-04-06T07:17:05.942Z,10.26
2019-04-06T07:19:34.648Z,10.30
2019-04-06T07:22:06.162Z,10.39
2019-04-06T07:24:34.877Z,10.40
2019-04-06T07:27:03.552Z,10.55
2019-04-06T07:29:33.912Z,10.70
2019-04-06T07:32:03.296Z,11.03
2019-04-06T07:34:32.066Z,11.38
2019-04-06T07:37:01.214Z,11.67
2019-04-06T07:39:29.892Z,12.03
2019-04-06T07:41:58.596Z,11.87
2019-04-06T07:44:27.258Z,11.92
2019-04-06T07:46:56.160Z,12.00
2019-04-06T07:49:24.813Z,12.11
2019-04-06T07:51:53.511Z,12.14
2019-04-06T07:54:22.184Z,12.34
2019-04-06T07:56:50.893Z,12.28
2019-04-06T07:59:19.576Z,12.19
2019-04-06T08:01:48.976Z,12.46
2019-04-06T08:04:17.754Z,12.52
2019-04-06T08:06:46.550Z,12.34
2019-04-06T08:09:15.214Z,12.35
2019-04-06T08:11:43.956Z,12.49
2019-04-06T08:14:14.188Z,12.64
2019-04-06T08:16:42.916Z,12.91
2019-04-06T08:19:11.647Z,12.94
2019-04-06T08:21:40.570Z,12.94
2019-04-06T08:24:09.344Z,12.82
2019-04-06T08:26:38.096Z,12.68
2019-04-06T08:29:06.810Z,12.67
2019-04-06T08:31:38.491Z,12.73
2019-04-06T08:34:07.216Z,12.84
2019-04-06T08:36:38.574Z,12.87
2019-04-06T08:39:09.600Z,13.12
2019-04-06T08:41:38.290Z,13.25
2019-04-06T08:44:09.921Z,13.23
2019-04-06T08:46:38.591Z,13.38
2019-04-06T08:49:07.400Z,13.62
2019-04-06T08:51:36.142Z,13.69
2019-04-06T08:54:04.924Z,13.63
2019-04-06T08:56:35.392Z,13.69
2019-04-06T08:59:11.251Z,13.73
2019-04-06T09:01:34.531Z,13.96
2019-04-06T09:04:03.337Z,14.57
2019-04-06T09:06:31.998Z,15.81
2019-04-06T09:09:05.155Z,16.91
2019-04-06T09:11:33.927Z,17.68
2019-04-06T09:14:02.777Z,18.55
2019-04-06T09:16:31.657Z,19.85
2019-04-06T09:19:00.514Z,20.48
2019-04-06T09:21:29.500Z,21.18
2019-04-06T09:23:58.910Z,21.76
2019-04-06T09:26:28.061Z,22.11
2019-04-06T09:28:59.397Z,22.20
2019-04-06T09:31:27.362Z,23.13
2019-04-06T09:33:56.025Z,22.95
2019-04-06T09:36:24.801Z,23.76
2019-04-06T09:38:53.549Z,23.73
2019-04-06T09:41:22.313Z,24.15
2019-04-06T09:43:50.976Z,24.70
2019-04-06T09:46:29.621Z,25.15
2019-04-06T09:49:08.334Z,25.75
2019-04-06T09:51:56.838Z,25.47
2019-04-06T09:54:36.591Z,25.54
2019-04-06T09:57:06.916Z,26.72
2019-04-06T09:59:52.513Z,26.98
2019-04-06T10:02:25.809Z,27.33
2019-04-06T10:05:11.720Z,27.82
2019-04-06T10:07:54.359Z,27.52
2019-04-06T10:10:37.085Z,26.96
2019-04-06T10:13:25.592Z,26.15
2019-04-06T10:15:59.146Z,25.63
2019-04-06T10:18:45.796Z,25.17
2019-04-06T10:21:16.347Z,25.02
2019-04-06T10:23:46.780Z,24.48
2019-04-06T10:26:17.083Z,24.01
2019-04-06T10:28:50.170Z,23.47
2019-04-06T10:31:24.997Z,23.15
2019-04-06T10:34:04.329Z,22.89
2019-04-06T10:36:50.849Z,22.89
2019-04-06T10:39:21.200Z,22.69
2019-04-06T10:41:57.479Z,22.73
2019-04-06T10:44:30.692Z,22.30
2019-04-06T10:47:04.036Z,22.03
2019-04-06T10:49:50.590Z,21.85
2019-04-06T10:52:23.287Z,21.70
2019-04-06T10:55:11.841Z,21.42
2019-04-06T10:58:00.776Z,21.64
2019-04-06T11:00:46.659Z,21.30
2019-04-06T11:03:29.021Z,21.27
2019-04-06T11:05:59.367Z,21.04
2019-04-06T11:08:38.700Z,21.12
2019-04-06T11:11:24.114Z,21.13
2019-04-06T11:14:10.857Z,21.16
2019-04-06T11:16:50.440Z,21.24
2019-04-06T11:19:26.831Z,21.07
2019-04-06T11:22:06.980Z,20.95
2019-04-06T11:24:37.296Z,21.14
2019-04-06T11:27:07.660Z,20.84
2019-04-06T11:29:37.971Z,20.84
2019-04-06T11:32:17.532Z,20.80
2019-04-06T11:35:04.102Z,20.89
2019-04-06T11:37:51.053Z,20.79
2019-04-06T11:40:30.442Z,20.82
2019-04-06T11:43:00.826Z,20.82
2019-04-06T11:45:31.367Z,20.89
2019-04-06T11:48:01.685Z,20.79
2019-04-06T11:50:39.189Z,21.03
2019-04-06T11:53:10.059Z,20.82
2019-04-06T11:55:46.628Z,20.67
2019-04-06T11:58:23.546Z,20.75
2019-04-06T12:01:09.270Z,20.49
2019-04-06T12:03:54.976Z,20.31
2019-04-06T12:06:28.327Z,20.61
2019-04-06T12:09:02.870Z,20.67
2019-04-06T12:11:48.305Z,20.72
2019-04-06T12:14:21.924Z,20.63
2019-04-06T12:17:04.182Z,20.86
2019-04-06T12:19:52.526Z,20.73
2019-04-06T12:22:25.943Z,20.63
2019-04-06T12:25:13.344Z,20.61
2019-04-06T12:27:58.682Z,20.48
2019-04-06T12:30:45.126Z,20.64
2019-04-06T12:33:27.521Z,20.77
2019-04-06T12:36:13.088Z,21.17
2019-04-06T12:38:55.714Z,21.41
2019-04-06T12:41:42.673Z,21.79
2019-04-06T12:44:22.276Z,21.91
2019-04-06T12:46:58.800Z,22.18
2019-04-06T12:49:47.273Z,22.24
2019-04-06T12:52:18.228Z,22.87
2019-04-06T12:55:04.835Z,22.65
2019-04-06T12:57:37.931Z,22.57
2019-04-06T13:00:21.759Z,23.47
2019-04-06T13:02:52.089Z,23.07
2019-04-06T13:08:18.871Z,23.25
2019-04-06T13:10:52.147Z,23.10
2019-04-06T13:13:31.893Z,22.44
2019-04-06T13:16:11.272Z,22.53
2019-04-06T13:18:57.694Z,22.86
2019-04-06T13:21:31.017Z,23.07
2019-04-06T13:26:50.729Z,23.23
2019-04-06T13:29:23.751Z,23.49
2019-04-06T13:31:57.348Z,23.26
2019-04-06T13:34:36.858Z,23.07
2019-04-06T13:37:16.067Z,23.06
2019-04-06T13:39:52.174Z,23.03
2019-04-06T13:42:25.629Z,22.88
2019-04-06T13:47:48.071Z,22.95
2019-04-06T13:50:21.203Z,23.05
2019-04-06T13:52:51.574Z,23.09
2019-04-06T13:55:40.232Z,23.08
2019-04-06T13:58:13.101Z,22.77
2019-04-06T14:00:43.539Z,22.80
2019-04-06T14:03:18.444Z,22.65
2019-04-06T14:06:05.211Z,22.65
2019-04-06T14:08:50.830Z,22.39
2019-04-06T14:11:24.356Z,22.24
2019-04-06T14:14:02.250Z,22.10
2019-04-06T14:16:51.210Z,22.10
2019-04-06T14:19:37.552Z,22.06
2019-04-06T14:22:24.388Z,22.15
2019-04-06T14:25:12.926Z,22.21
2019-04-06T14:27:43.411Z,22.28
2019-04-06T14:30:13.878Z,22.37
2019-04-06T14:32:50.072Z,22.53
2019-04-06T14:35:20.896Z,22.57
2019-04-06T14:38:07.148Z,22.57
2019-04-06T14:40:46.536Z,22.49
2019-04-06T14:43:33.341Z,22.53
2019-04-06T14:46:07.921Z,22.66
2019-04-06T14:48:38.262Z,22.84
2019-04-06T14:51:12.018Z,22.95
2019-04-06T14:53:51.425Z,23.06
2019-04-06T14:56:24.652Z,23.00
2019-04-06T14:58:55.011Z,22.89
2019-04-06T15:01:40.191Z,22.86
2019-04-06T15:04:08.255Z,22.90
2019-04-06T15:06:45.128Z,22.88
2019-04-06T15:09:26.887Z,22.90
2019-04-06T15:12:00.218Z,22.85
2019-04-06T15:14:45.902Z,22.75
2019-04-06T15:17:22.223Z,22.76
2019-04-06T15:19:54.031Z,22.70
2019-04-06T15:22:39.614Z,22.51
2019-04-06T15:25:28.429Z,22.43
2019-04-06T15:28:19.829Z,22.13
2019-04-06T15:30:59.235Z,22.00
2019-04-06T15:33:32.633Z,21.84
2019-04-06T15:36:05.876Z,21.70
2019-04-06T15:38:36.636Z,21.67
2019-04-06T15:41:12.143Z,21.46
2019-04-06T15:43:54.688Z,21.35
2019-04-06T15:46:30.109Z,21.22
2019-04-06T15:49:06.314Z,21.14
2019-04-06T15:51:45.368Z,21.00
2019-04-06T15:57:09.805Z,20.80
2019-04-06T15:59:46.647Z,20.74
2019-04-06T16:02:23.131Z,20.68
2019-04-06T16:05:05.522Z,20.63
2019-04-06T16:07:52.631Z,20.60
2019-04-06T16:10:25.763Z,20.41
2019-04-06T16:12:59.371Z,20.27
2019-04-06T16:15:35.885Z,20.21
2019-04-06T16:18:12.249Z,20.12
2019-04-06T16:20:42.628Z,20.03
2019-04-06T16:23:13.294Z,19.95
2019-04-06T16:25:59.382Z,19.92
2019-04-06T16:28:45.478Z,19.88
2019-04-06T16:31:35.359Z,19.78
2019-04-06T16:34:17.748Z,19.65
2019-04-06T16:37:04.575Z,19.56
2019-04-06T16:39:43.860Z,19.49
2019-04-06T16:42:20.189Z,19.38
2019-04-06T16:44:52.140Z,19.35
2019-04-06T16:47:25.433Z,18.89
2019-04-06T16:50:03.835Z,19.19
2019-04-06T16:52:34.194Z,19.16
2019-04-06T16:55:04.504Z,19.08
2019-04-06T16:57:51.400Z,19.05
2019-04-06T17:00:21.744Z,18.95
2019-04-06T17:03:06.420Z,18.82
2019-04-06T17:05:36.185Z,18.79
2019-04-06T17:08:13.542Z,18.77
2019-04-06T17:10:47.761Z,18.72
2019-04-06T17:13:18.150Z,18.65
2019-04-06T17:15:53.829Z,18.61
2019-04-06T17:18:38.978Z,18.58
2019-04-06T17:21:13.007Z,18.51
2019-04-06T17:23:52.752Z,18.39
2019-04-06T17:26:33.193Z,18.34
2019-04-06T17:29:19.756Z,18.27
2019-04-06T17:31:50.675Z,18.23
2019-04-06T17:34:37.205Z,18.18
2019-04-06T17:37:17.000Z,18.10
2019-04-06T17:39:48.672Z,18.03
2019-04-06T17:42:25.200Z,17.97
2019-04-06T17:45:13.932Z,17.92
2019-04-06T17:47:50.205Z,17.89
2019-04-06T17:50:20.794Z,17.81
2019-04-06T17:53:05.732Z,17.75
2019-04-06T17:55:39.099Z,17.72
2019-04-06T17:58:12.913Z,17.63
2019-04-06T18:01:01.671Z,17.60
2019-04-06T18:03:37.685Z,17.55
2019-04-06T18:06:23.171Z,17.51
2019-04-06T18:08:59.472Z,17.46
2019-04-06T18:11:29.826Z,17.40
2019-04-06T18:13:58.619Z,17.36
2019-04-06T18:16:28.955Z,17.28
2019-04-06T18:18:57.737Z,17.23
2019-04-06T18:21:26.481Z,17.20
2019-04-06T18:23:55.308Z,17.14
2019-04-06T18:26:27.118Z,17.10
2019-04-06T18:28:56.205Z,17.05
2019-04-06T18:31:26.607Z,16.98
2019-04-06T18:33:55.768Z,16.90
2019-04-06T18:36:26.600Z,16.83
2019-04-06T18:39:02.975Z,16.75
2019-04-06T18:41:35.817Z,16.66
2019-04-06T18:44:04.531Z,16.56
2019-04-06T18:46:33.265Z,16.44
2019-04-06T18:49:02.171Z,16.22
2019-04-06T18:51:30.934Z,16.15
2019-04-06T18:53:59.693Z,16.15
2019-04-06T18:56:29.194Z,16.10
2019-04-06T18:59:00.504Z,16.04
2019-04-06T19:01:29.314Z,15.97
2019-04-06T19:03:58.062Z,15.92
2019-04-06T19:06:27.256Z,15.88
2019-04-06T19:08:56.067Z,15.84
2019-04-06T19:11:25.752Z,15.82
2019-04-06T19:13:54.780Z,15.78
2019-04-06T19:16:23.619Z,15.73
2019-04-06T19:18:52.335Z,15.67
2019-04-06T19:21:21.104Z,15.61
2019-04-06T19:23:49.869Z,15.52
2019-04-06T19:26:18.810Z,15.48
2019-04-06T19:28:47.602Z,15.45
2019-04-06T19:31:16.915Z,15.35
2019-04-06T19:33:45.750Z,15.29
2019-04-06T19:36:14.733Z,15.26
2019-04-06T19:38:43.839Z,15.22
2019-04-06T19:41:12.647Z,15.13
2019-04-06T19:43:41.407Z,15.11
2019-04-06T19:46:25.171Z,15.10
2019-04-06T19:48:58.557Z,15.09
2019-04-06T19:51:29.101Z,15.05
2019-04-06T19:54:00.431Z,15.01
2019-04-06T19:56:29.132Z,14.97
2019-04-06T19:58:57.906Z,14.93
2019-04-06T20:01:26.599Z,14.87
2019-04-06T20:03:55.467Z,14.83
2019-04-06T20:06:24.199Z,14.76
2019-04-06T20:08:52.956Z,14.68
2019-04-06T20:11:22.033Z,14.63
2019-04-06T20:13:50.855Z,14.57
2019-04-06T20:16:20.137Z,14.51
2019-04-06T20:18:49.004Z,14.46
2019-04-06T20:21:17.665Z,14.38
2019-04-06T20:23:46.465Z,14.33
2019-04-06T20:26:15.229Z,14.27
2019-04-06T20:28:44.469Z,14.17
2019-04-06T20:31:13.360Z,14.12
2019-04-06T20:33:50.304Z,14.06
2019-04-06T20:36:13.068Z,14.00
2019-04-06T20:38:42.356Z,13.98
2019-04-06T20:41:11.160Z,13.92
2019-04-06T20:43:39.926Z,13.89
2019-04-06T20:46:08.704Z,13.88
2019-04-06T20:48:38.435Z,13.84
2019-04-06T20:51:07.366Z,13.78
2019-04-06T20:53:36.426Z,13.69
2019-04-06T20:56:05.416Z,13.59
2019-04-06T20:58:34.082Z,13.44
2019-04-06T21:01:02.856Z,13.40
2019-04-06T21:03:31.611Z,13.38
2019-04-06T21:06:00.429Z,13.37
2019-04-06T21:08:29.665Z,13.28
2019-04-06T21:10:58.917Z,13.22
2019-04-06T21:13:27.860Z,13.18
2019-04-06T21:15:56.674Z,13.16
2019-04-06T21:18:25.948Z,13.08
2019-04-06T21:20:57.530Z,13.03
2019-04-06T21:23:26.340Z,12.90
2019-04-06T21:25:55.660Z,12.90
2019-04-06T21:28:24.540Z,12.90
2019-04-06T21:30:53.428Z,12.93
2019-04-06T21:33:22.253Z,12.84
2019-04-06T21:35:51.023Z,12.82
2019-04-06T21:38:19.826Z,12.79
2019-04-06T21:40:48.996Z,12.79
2019-04-06T21:43:18.092Z,12.77
2019-04-06T21:45:46.874Z,12.80
2019-04-06T21:48:16.116Z,12.71
2019-04-06T21:50:45.229Z,12.68
2019-04-06T21:53:14.127Z,12.66
2019-04-06T21:55:43.488Z,12.70
2019-04-06T21:58:14.565Z,12.67
2019-04-06T22:00:45.651Z,12.70
2019-04-06T22:03:14.461Z,12.67
2019-04-06T22:05:43.201Z,12.63
2019-04-06T22:08:19.437Z,12.63
2019-04-06T22:10:48.108Z,12.62
2019-04-06T22:13:16.800Z,12.58
2019-04-06T22:15:46.142Z,12.57
2019-04-06T22:18:14.965Z,12.62
2019-04-06T22:20:43.878Z,12.60
2019-04-06T22:23:13.099Z,12.62
2019-04-06T22:25:41.965Z,12.62
2019-04-06T22:28:10.939Z,12.58
2019-04-06T22:30:40.707Z,12.59
2019-04-06T22:33:09.454Z,12.55
2019-04-06T22:35:38.400Z,12.51
2019-04-06T22:38:08.084Z,12.50
2019-04-06T22:40:37.066Z,12.46
2019-04-06T22:43:05.873Z,12.41
2019-04-06T22:45:35.136Z,12.37
2019-04-06T22:48:07.304Z,12.33
2019-04-06T22:50:36.538Z,12.29
2019-04-06T22:53:08.729Z,12.23
2019-04-06T22:55:38.042Z,12.22
2019-04-06T22:58:07.145Z,12.16
2019-04-06T23:03:41.124Z,12.14
2019-04-06T23:06:18.064Z,12.14
2019-04-06T23:08:47.360Z,12.09
2019-04-06T23:11:16.234Z,12.03
2019-04-06T23:14:22.476Z,11.99
2019-04-06T23:16:50.577Z,11.95
2019-04-06T23:19:19.339Z,11.90
2019-04-06T23:21:48.025Z,11.87
2019-04-06T23:24:16.695Z,11.84
2019-04-06T23:26:45.536Z,11.83
2019-04-06T23:29:14.427Z,11.81
2019-04-06T23:31:43.119Z,11.73
2019-04-06T23:34:11.801Z,11.74
2019-04-06T23:36:40.672Z,11.71
2019-04-06T23:39:09.439Z,11.69
2019-04-06T23:41:38.093Z,11.66
2019-04-06T23:44:07.928Z,11.65
2019-04-06T23:46:36.786Z,11.61
2019-04-06T23:49:05.557Z,11.58
2019-04-06T23:51:34.893Z,11.57
2019-04-06T23:54:04.253Z,11.56
2019-04-06T23:56:33.467Z,11.51
2019-04-06T23:59:03.702Z,11.49
